KMHL/MHL METAR and TAF weather

Enter ICAO airport designator
Station Type Date Time Source
KMHL METAR 2018/12/14 18:35 UTC NOAA

KMHL 141835Z AUTO 00000KT 1 3/4SM BR OVC003 02/01 A3019 RMK AO2


Station Type Date Time Source
KMHL Decoded METAR 2018/12/14 18:35 UTC NOAA

Station name not available
Dec 14, 2018 - 01:35 PM EST / 2018.12.14 1835 UTC
Wind: Calm:0
Visibility: 1 3/4 mile(s):0
Sky conditions: overcast
Weather: mist
Temperature: 35 F (2 C)
Dew Point: 33 F (1 C)
Relative Humidity: 93%
Pressure (altimeter): 30.19 in. Hg (1022 hPa)
ob: KMHL 141835Z AUTO 00000KT 1 3/4SM BR OVC003 02/01 A3019 RMK AO2
cycle: 18

Station Type Date Time Source
KMHL TAF UTC NOAA

Error!


Example: see airport list